Terminal Aerodrome Forecast
Issued by NWS

Home | Current Version | Previous Version | Text Only | Print | Product List | Glossary Off
Versions: 1 2 3 4 5 6 7 8 9 10 11 12 13

112
FTUS43 KFGF 161720
TAFBJI
TAF
KBJI 161720Z 1618/1718 20014G21KT P6SM FEW250
     FM162300 22011KT P6SM SKC
     FM170100 23007KT P6SM SKC=

USA.gov is the U.S. government's official web portal to all federal, state and local government web resources and services.